Terminal Aerodrome Forecast
Issued by NWS

Home | Current Version | Previous Version | Text Only | Print | Product List | Glossary On
Versions: 1 2 3 4 5 6 7 8 9 10 11 12 13 14 15
000
FTUS45 KABQ 061930 AAA
TAFSAF
TAF AMD
KSAF 061930Z 0620/0718 06011KT P6SM VCTS SCT070CB BKN120
      TEMPO 0620/0624 VRB18G28KT BKN060CB BKN100
     FM070100 12018G28KT P6SM VCTS BKN050CB
     FM070400 13015G25KT P6SM VCSH OVC040
     FM071100 16010KT P6SM OVC025=

USA.gov is the U.S. government's official web portal to all federal, state and local government web resources and services.